KLNR

Tri-County Regional Airport

Lone Rock, Wisconsin, USA
METAR KLNR 170156Z AUTO 07008KT 6SM BR OVC011 00/M02 A3006 RMK AO2 SLP182 T00001017
Observed Flight Rules
Dec-17 @ 01:56 UTC (24 minutes ago) Marginal Visual Flight Rules
Wind Visibility Clouds Conditions
70° at 8 knots 6 miles
  • Overcast at 1,100' AGL
  • Mist
Temperatures Readings
Current 0°C / 32°F
Dewpoint -2°C / 28°F
Humidity 87%
Altimeter 30.06" Hg
Pressure 1018.2 hPa
Elevation 217
METAR KLNR 170156Z AUTO 07008KT 6SM BR OVC011 00/M02 A3006 RMK AO2 SLP182 T00001017
Observed Flight Rules
Dec-17 @ 01:56 UTC
(24 minutes ago)
MVFR
Wind Visibility
70° at 8 knots 6 miles
Clouds
  • Overcast at 1,100' AGL
Conditions
  • Mist
Temperature Dewpoint
0°C / 32°F -2°C / 28°F
Humidity Altimeter Pressure
87% 30.06" Hg 1018.2 hPa